createdAt,value
2022-11-18T00:00:22.338Z,98702.41
2022-11-18T00:02:48.884Z,98704.94
2022-11-18T00:05:16.620Z,98706.66
2022-11-18T00:07:42.906Z,98704.03
2022-11-18T00:10:09.361Z,98712.13
2022-11-18T00:12:35.702Z,98713.50
2022-11-18T00:15:02.070Z,98715.69
2022-11-18T00:17:28.410Z,98717.66
2022-11-18T00:19:54.735Z,98717.63
2022-11-18T00:22:26.908Z,98719.09
2022-11-18T00:24:56.012Z,98723.50
2022-11-18T00:27:22.458Z,98731.19
2022-11-18T00:29:49.071Z,98731.69
2022-11-18T00:32:15.408Z,98733.16
2022-11-18T00:34:41.763Z,98732.31
2022-11-18T00:37:08.129Z,98742.72
2022-11-18T00:39:35.723Z,98751.44
2022-11-18T00:42:02.008Z,98748.75
2022-11-18T00:44:28.411Z,98749.59
2022-11-18T00:46:54.745Z,98748.75
2022-11-18T00:49:21.074Z,98754.94
2022-11-18T00:51:47.427Z,98762.81
2022-11-18T00:54:13.752Z,98769.19
2022-11-18T00:56:41.373Z,98789.19
2022-11-18T00:59:07.969Z,98794.25
2022-11-18T01:01:34.495Z,98794.09
2022-11-18T01:04:00.883Z,98793.59
2022-11-18T01:06:27.173Z,98775.81
2022-11-18T01:08:53.544Z,98774.94
2022-11-18T01:11:19.909Z,98777.47
2022-11-18T01:13:50.297Z,98773.44
2022-11-18T01:16:18.019Z,98786.84
2022-11-18T01:18:44.449Z,98798.25
2022-11-18T01:21:10.816Z,98811.31
2022-11-18T01:23:37.143Z,98789.84
2022-11-18T01:26:04.219Z,98785.97
2022-11-18T01:28:30.737Z,98780.81
2022-11-18T01:31:03.321Z,98779.78
2022-11-18T01:33:29.624Z,98776.09
2022-11-18T01:35:55.952Z,98783.97
2022-11-18T01:38:22.364Z,98783.78
2022-11-18T01:40:48.736Z,98777.44
2022-11-18T01:43:16.007Z,98776.41
2022-11-18T01:45:43.157Z,98778.91
2022-11-18T01:48:13.567Z,98778.28
2022-11-18T01:50:44.506Z,98781.88
2022-11-18T01:53:13.408Z,98789.91
2022-11-18T01:55:43.555Z,98800.31
2022-11-18T01:58:12.320Z,98801.50
2022-11-18T02:00:39.295Z,98805.16
2022-11-18T02:03:05.989Z,98813.53
2022-11-18T02:05:33.782Z,98812.16
2022-11-18T02:08:00.920Z,98816.69
2022-11-18T02:10:27.270Z,98812.84
2022-11-18T02:12:54.511Z,98807.28
2022-11-18T02:15:25.519Z,98807.97
2022-11-18T02:17:57.195Z,98801.78
2022-11-18T02:20:28.132Z,98808.81
2022-11-18T02:23:11.862Z,98819.34
2022-11-18T02:25:44.038Z,98816.50
2022-11-18T02:28:22.827Z,98811.97
2022-11-18T02:30:53.902Z,98820.72
2022-11-18T02:33:24.043Z,98818.03
2022-11-18T02:35:53.807Z,98822.38
2022-11-18T02:38:24.594Z,98840.16
2022-11-18T02:40:55.110Z,98836.69
2022-11-18T02:43:24.509Z,98834.84
2022-11-18T02:45:55.984Z,98847.59
2022-11-18T02:48:24.666Z,98836.19
2022-11-18T02:50:52.041Z,98843.56
2022-11-18T02:53:19.660Z,98843.22
2022-11-18T02:55:46.920Z,98850.94
2022-11-18T02:58:15.265Z,98842.88
2022-11-18T03:00:41.596Z,98847.03
2022-11-18T03:03:17.769Z,98849.56
2022-11-18T03:05:52.914Z,98857.28
2022-11-18T03:08:23.017Z,98857.28
2022-11-18T03:10:52.726Z,98855.25
2022-11-18T03:13:24.792Z,98854.22
2022-11-18T03:15:56.140Z,98854.06
2022-11-18T03:18:26.455Z,98846.19
2022-11-18T03:20:58.542Z,98857.59
2022-11-18T03:23:28.320Z,98861.94
2022-11-18T03:25:57.478Z,98872.19
2022-11-18T03:28:26.307Z,98865.34
2022-11-18T03:30:56.453Z,98853.63
2022-11-18T03:33:24.909Z,98852.13
2022-11-18T03:35:54.152Z,98859.81
2022-11-18T03:38:25.100Z,98868.34
2022-11-18T03:40:59.885Z,98868.00
2022-11-18T03:43:29.034Z,98874.53
2022-11-18T03:45:57.778Z,98878.22
2022-11-18T03:48:26.345Z,98872.34
2022-11-18T03:50:55.359Z,98873.66
2022-11-18T03:53:25.418Z,98865.28
2022-11-18T03:55:54.137Z,98867.41
2022-11-18T03:58:23.364Z,98871.63
2022-11-18T04:00:52.533Z,98869.75
2022-11-18T04:03:19.106Z,98874.44
2022-11-18T04:05:47.069Z,98881.97
2022-11-18T04:08:16.273Z,98871.91
2022-11-18T04:10:47.033Z,98881.28
2022-11-18T04:13:17.931Z,98887.50
2022-11-18T04:15:44.277Z,98895.00
2022-11-18T04:18:11.011Z,98897.53
2022-11-18T04:20:37.711Z,98896.38
2022-11-18T04:23:04.228Z,98889.28
2022-11-18T04:25:30.612Z,98884.00
2022-11-18T04:27:58.278Z,98895.44
2022-11-18T04:30:24.632Z,98904.84
2022-11-18T04:32:50.932Z,98915.78
2022-11-18T04:35:17.283Z,98932.91
2022-11-18T04:37:43.585Z,98921.81
2022-11-18T04:40:10.818Z,98925.63
2022-11-18T04:42:37.165Z,98921.63
2022-11-18T04:45:05.253Z,98923.13
2022-11-18T04:47:31.611Z,98926.97
2022-11-18T04:49:57.935Z,98935.16
2022-11-18T04:52:24.293Z,98933.97
2022-11-18T04:54:50.631Z,98934.66
2022-11-18T04:57:17.081Z,98928.75
2022-11-18T04:59:43.414Z,98939.34
2022-11-18T05:02:11.038Z,98944.53
2022-11-18T05:04:37.393Z,98948.53
2022-11-18T05:07:04.699Z,98949.38
2022-11-18T05:09:32.274Z,98941.78
2022-11-18T05:11:59.327Z,98939.59
2022-11-18T05:14:25.709Z,98948.97
2022-11-18T05:16:52.160Z,98947.31
2022-11-18T05:19:20.294Z,98947.81
2022-11-18T05:21:46.826Z,98951.84
2022-11-18T05:24:13.624Z,98965.31
2022-11-18T05:26:39.963Z,98963.34
2022-11-18T05:29:06.263Z,98968.22
2022-11-18T05:31:32.931Z,98965.88
2022-11-18T05:33:59.302Z,98966.91
2022-11-18T05:36:26.973Z,98965.56
2022-11-18T05:38:53.351Z,98966.75
2022-11-18T05:41:19.746Z,98965.09
2022-11-18T05:43:46.369Z,98969.75
2022-11-18T05:46:12.705Z,98981.13
2022-11-18T05:48:39.032Z,98978.59
2022-11-18T05:51:05.490Z,98982.81
2022-11-18T05:53:33.076Z,98988.66
2022-11-18T05:56:03.387Z,98987.47
2022-11-18T05:58:29.734Z,98990.81
2022-11-18T06:01:00.629Z,99000.41
2022-11-18T06:03:30.968Z,99003.91
2022-11-18T06:05:59.773Z,99008.75
2022-11-18T06:08:28.883Z,99001.56
2022-11-18T06:10:56.795Z,99014.91
2022-11-18T06:13:25.426Z,99004.16
2022-11-18T06:15:52.616Z,99012.22
2022-11-18T06:18:22.019Z,99017.44
2022-11-18T06:20:48.447Z,99020.59
2022-11-18T06:23:14.941Z,99022.25
2022-11-18T06:25:41.594Z,99026.78
2022-11-18T06:28:10.404Z,99033.50
2022-11-18T06:30:36.764Z,99032.34
2022-11-18T06:33:03.129Z,99039.06
2022-11-18T06:35:29.511Z,99034.00
2022-11-18T06:37:55.872Z,99043.25
2022-11-18T06:40:22.157Z,99049.59
2022-11-18T06:42:48.571Z,99057.50
2022-11-18T06:45:17.136Z,99062.50
2022-11-18T06:47:43.899Z,99071.94
2022-11-18T06:50:10.358Z,99070.56
2022-11-18T06:52:36.748Z,99067.91
2022-11-18T06:55:03.256Z,99084.50
2022-11-18T06:57:29.708Z,99082.47
2022-11-18T07:00:01.622Z,99085.00
2022-11-18T07:02:29.814Z,99091.25
2022-11-18T07:04:56.134Z,99080.84
2022-11-18T07:07:22.592Z,99092.59
2022-11-18T07:09:48.960Z,99093.09
2022-11-18T07:12:15.274Z,99106.84
2022-11-18T07:14:41.613Z,99107.19
2022-11-18T07:17:08.079Z,99109.38
2022-11-18T07:19:36.234Z,99112.38
2022-11-18T07:22:02.606Z,99107.03
2022-11-18T07:24:28.971Z,99115.25
2022-11-18T07:26:55.375Z,99120.59
2022-11-18T07:29:21.706Z,99121.59
2022-11-18T07:31:48.012Z,99132.00
2022-11-18T07:34:14.447Z,99130.34
2022-11-18T07:36:42.208Z,99133.53
2022-11-18T07:39:08.788Z,99128.16
2022-11-18T07:41:35.605Z,99129.66
2022-11-18T07:44:03.144Z,99131.00
2022-11-18T07:46:30.281Z,99143.94
2022-11-18T07:48:57.493Z,99141.09
2022-11-18T07:51:24.862Z,99153.50
2022-11-18T07:53:52.487Z,99161.38
2022-11-18T07:56:19.295Z,99153.66
2022-11-18T07:58:45.762Z,99167.78
2022-11-18T08:01:12.842Z,99167.78
2022-11-18T08:03:39.474Z,99160.41
2022-11-18T08:06:06.895Z,99165.94
2022-11-18T08:08:33.249Z,99164.56
2022-11-18T08:11:01.808Z,99171.28
2022-11-18T08:13:28.469Z,99166.94
2022-11-18T08:15:55.383Z,99193.31
2022-11-18T08:18:22.150Z,99210.59
2022-11-18T08:20:48.579Z,99215.47
2022-11-18T08:23:16.054Z,99217.31
2022-11-18T08:25:43.204Z,99222.50
2022-11-18T08:28:11.126Z,99217.00
2022-11-18T08:30:37.825Z,99217.50
2022-11-18T08:33:04.557Z,99215.63
2022-11-18T08:35:31.828Z,99213.94
2022-11-18T08:37:58.531Z,99210.94
2022-11-18T08:40:25.327Z,99213.94
2022-11-18T08:42:51.709Z,99210.25
2022-11-18T08:45:19.442Z,99206.06
2022-11-18T08:47:45.819Z,99206.91
2022-11-18T08:50:12.418Z,99207.41
2022-11-18T08:52:38.835Z,99213.47
2022-11-18T08:55:06.091Z,99212.44
2022-11-18T08:57:32.395Z,99210.94
2022-11-18T08:59:58.745Z,99221.69
2022-11-18T09:02:26.336Z,99223.91
2022-11-18T09:04:53.267Z,99227.56
2022-11-18T09:07:20.472Z,99224.72
2022-11-18T09:09:47.263Z,99236.81
2022-11-18T09:12:13.674Z,99248.72
2022-11-18T09:17:29.027Z,99263.31
2022-11-18T09:19:55.409Z,99270.53
2022-11-18T09:22:21.750Z,99267.00
2022-11-18T09:24:48.161Z,99275.41
2022-11-18T09:27:17.253Z,99269.00
2022-11-18T09:29:44.113Z,99258.78
2022-11-18T09:32:10.517Z,99266.66
2022-11-18T09:34:38.187Z,99270.69
2022-11-18T09:37:04.614Z,99274.72
2022-11-18T09:39:30.957Z,99271.34
2022-11-18T09:42:04.487Z,99284.75
2022-11-18T09:44:40.438Z,99285.78
2022-11-18T09:47:12.895Z,99284.44
2022-11-18T09:49:42.108Z,99281.56
2022-11-18T09:52:13.606Z,99295.16
2022-11-18T09:54:40.015Z,99290.50
2022-11-18T09:57:11.781Z,99290.50
2022-11-18T09:59:38.457Z,99296.00
2022-11-18T10:02:19.852Z,99294.16
2022-11-18T10:04:47.554Z,99292.81
2022-11-18T10:07:17.927Z,99300.03
2022-11-18T10:09:45.277Z,99295.13
2022-11-18T10:12:14.900Z,99306.84
2022-11-18T10:14:48.472Z,99318.94
2022-11-18T10:17:21.548Z,99312.25
2022-11-18T10:19:52.526Z,99321.84
2022-11-18T10:22:24.611Z,99322.03
2022-11-18T10:24:52.609Z,99330.06
2022-11-18T10:27:19.185Z,99327.69
2022-11-18T10:29:48.493Z,99337.09
2022-11-18T10:32:15.531Z,99357.56
2022-11-18T10:34:47.334Z,99355.91
2022-11-18T10:37:34.480Z,99357.91
2022-11-18T10:40:23.029Z,99359.22
2022-11-18T10:42:49.429Z,99336.78
2022-11-18T10:45:16.703Z,99318.50
2022-11-18T10:47:43.111Z,99324.69
2022-11-18T10:50:24.283Z,99336.59
2022-11-18T10:52:52.909Z,99342.31
2022-11-18T10:55:21.055Z,99341.63
2022-11-18T10:57:48.575Z,99347.16
2022-11-18T11:00:24.892Z,99351.03
2022-11-18T11:02:51.276Z,99342.16
2022-11-18T11:05:19.747Z,99342.56
2022-11-18T11:07:46.294Z,99344.78
2022-11-18T11:10:21.556Z,99336.22
2022-11-18T11:12:51.597Z,99340.94
2022-11-18T11:15:19.206Z,99338.91
2022-11-18T11:17:48.340Z,99338.44
2022-11-18T11:20:17.938Z,99341.47
2022-11-18T11:22:44.442Z,99339.28
2022-11-18T11:25:12.821Z,99348.03
2022-11-18T11:30:35.828Z,99367.00
2022-11-18T11:33:12.401Z,99356.75
2022-11-18T11:35:42.539Z,99349.22
2022-11-18T11:38:15.961Z,99349.53
2022-11-18T11:40:45.075Z,99339.63
2022-11-18T11:43:22.059Z,99342.94
2022-11-18T11:45:56.837Z,99338.19
2022-11-18T11:48:30.183Z,99330.66
2022-11-18T11:51:04.283Z,99333.34
2022-11-18T11:53:44.829Z,99338.00
2022-11-18T11:56:19.721Z,99334.50
2022-11-18T11:58:59.139Z,99332.97
2022-11-18T12:01:29.814Z,99327.91
2022-11-18T12:04:01.618Z,99332.47
2022-11-18T12:06:28.089Z,99329.13
2022-11-18T12:09:01.666Z,99329.13
2022-11-18T12:11:30.818Z,99333.28
2022-11-18T12:14:02.666Z,99336.84
2022-11-18T12:16:33.589Z,99345.94
2022-11-18T12:19:01.395Z,99352.34
2022-11-18T12:21:37.623Z,99369.66
2022-11-18T12:24:18.786Z,99356.44
2022-11-18T12:26:46.364Z,99358.44
2022-11-18T12:29:23.129Z,99352.59
2022-11-18T12:31:50.614Z,99354.94
2022-11-18T12:34:20.456Z,99359.81
2022-11-18T12:36:46.773Z,99358.78
2022-11-18T12:39:23.052Z,99355.44
2022-11-18T12:41:53.218Z,99364.53
2022-11-18T12:44:24.002Z,99358.97
2022-11-18T12:46:51.639Z,99362.84
2022-11-18T12:49:27.827Z,99357.78
2022-11-18T12:51:54.898Z,99359.47
2022-11-18T12:54:24.229Z,99366.19
2022-11-18T12:56:50.609Z,99351.41
2022-11-18T12:59:17.291Z,99357.78
2022-11-18T13:01:45.591Z,99353.53
2022-11-18T13:04:13.851Z,99354.56
2022-11-18T13:06:40.530Z,99351.00
2022-11-18T13:09:14.564Z,99358.41
2022-11-18T13:11:43.801Z,99355.19
2022-11-18T13:14:14.370Z,99361.75
2022-11-18T13:16:41.507Z,99363.41
2022-11-18T13:19:09.466Z,99366.28
2022-11-18T13:21:36.096Z,99368.47
2022-11-18T13:24:02.517Z,99366.28
2022-11-18T13:26:29.976Z,99367.09
2022-11-18T13:29:02.849Z,99362.88
2022-11-18T13:31:32.653Z,99368.91
2022-11-18T13:34:00.746Z,99376.63
2022-11-18T13:39:43.840Z,99370.63
2022-11-18T13:42:17.165Z,99360.41
2022-11-18T13:44:45.447Z,99365.44
2022-11-18T13:47:15.850Z,99372.66
2022-11-18T13:49:50.392Z,99423.03
2022-11-18T13:52:18.987Z,99420.13
2022-11-18T13:54:45.901Z,99429.63
2022-11-18T13:57:22.669Z,99418.16
2022-11-18T13:59:49.942Z,99405.06
2022-11-18T14:02:16.745Z,99409.59
2022-11-18T14:04:49.539Z,99416.50
2022-11-18T14:07:22.662Z,99412.28
2022-11-18T14:09:53.570Z,99403.72
2022-11-18T14:12:25.345Z,99400.00
2022-11-18T14:14:51.691Z,99389.44
2022-11-18T14:17:19.215Z,99399.31
2022-11-18T14:19:46.383Z,99396.97
2022-11-18T14:22:15.140Z,99382.53
2022-11-18T14:24:41.645Z,99389.44
2022-11-18T14:27:17.862Z,99388.72
2022-11-18T14:29:50.421Z,99384.31
2022-11-18T14:32:16.758Z,99386.78
2022-11-18T14:34:43.086Z,99393.72
2022-11-18T14:37:10.916Z,99388.41
2022-11-18T14:39:37.911Z,99381.69
2022-11-18T14:42:04.715Z,99389.06
2022-11-18T14:44:31.151Z,99392.78
2022-11-18T14:46:59.724Z,99401.31
2022-11-18T14:49:26.960Z,99396.78
2022-11-18T14:51:53.921Z,99403.31
2022-11-18T14:54:26.360Z,99407.34
2022-11-18T14:56:54.587Z,99410.88
2022-11-18T14:59:21.142Z,99409.38
2022-11-18T15:01:47.692Z,99407.34
2022-11-18T15:04:15.743Z,99411.69
2022-11-18T15:06:42.176Z,99411.38
2022-11-18T15:09:08.578Z,99416.91
2022-11-18T15:11:34.986Z,99410.81
2022-11-18T15:14:01.622Z,99420.34
2022-11-18T15:16:29.288Z,99421.88
2022-11-18T15:19:00.057Z,99427.72
2022-11-18T15:21:28.529Z,99420.84
2022-11-18T15:23:54.958Z,99434.41
2022-11-18T15:26:22.317Z,99437.25
2022-11-18T15:28:49.333Z,99440.41
2022-11-18T15:31:16.239Z,99443.66
2022-11-18T15:33:42.581Z,99454.84
2022-11-18T15:36:11.808Z,99444.16
2022-11-18T15:38:39.439Z,99455.38
2022-11-18T15:41:05.935Z,99454.19
2022-11-18T15:43:32.301Z,99452.44
2022-11-18T15:45:59.018Z,99451.88
2022-11-18T15:48:25.397Z,99460.75
2022-11-18T15:50:54.234Z,99457.72
2022-11-18T15:53:20.790Z,99464.06
2022-11-18T15:55:48.456Z,99468.06
2022-11-18T15:58:17.345Z,99469.91
2022-11-18T16:00:45.193Z,99473.22
2022-11-18T16:03:11.727Z,99474.53
2022-11-18T16:05:38.038Z,99474.72
2022-11-18T16:08:04.449Z,99475.84
2022-11-18T16:10:30.735Z,99478.75
2022-11-18T16:12:58.369Z,99480.16
2022-11-18T16:15:24.702Z,99484.09
2022-11-18T16:17:51.299Z,99488.63
2022-11-18T16:20:17.692Z,99486.59
2022-11-18T16:22:44.032Z,99495.66
2022-11-18T16:25:11.143Z,99499.34
2022-11-18T16:27:37.436Z,99503.03
2022-11-18T16:30:05.304Z,99512.91
2022-11-18T16:32:31.603Z,99511.22
2022-11-18T16:35:01.239Z,99507.88
2022-11-18T16:37:27.903Z,99506.16
2022-11-18T16:39:54.210Z,99504.50
2022-11-18T16:42:20.493Z,99510.88
2022-11-18T16:44:46.903Z,99507.34
2022-11-18T16:47:15.453Z,99512.72
2022-11-18T16:49:42.296Z,99507.66
2022-11-18T16:52:08.609Z,99522.06
2022-11-18T16:54:38.272Z,99525.56
2022-11-18T16:57:08.464Z,99527.41
2022-11-18T16:59:34.740Z,99531.94
2022-11-18T17:02:01.202Z,99543.53
2022-11-18T17:04:29.622Z,99554.41
2022-11-18T17:06:56.038Z,99561.63
2022-11-18T17:09:23.389Z,99562.69
2022-11-18T17:11:49.948Z,99566.53
2022-11-18T17:14:16.321Z,99570.66
2022-11-18T17:16:43.035Z,99574.53
2022-11-18T17:19:12.799Z,99577.19
2022-11-18T17:21:41.067Z,99574.66
2022-11-18T17:24:07.810Z,99575.81
2022-11-18T17:26:34.182Z,99574.28
2022-11-18T17:29:00.562Z,99575.28
2022-11-18T17:31:26.876Z,99580.66
2022-11-18T17:33:54.215Z,99582.63
2022-11-18T17:36:22.137Z,99573.59
2022-11-18T17:38:51.048Z,99580.78
2022-11-18T17:41:18.474Z,99575.59
2022-11-18T17:43:44.744Z,99572.91
2022-11-18T17:46:11.045Z,99568.53
2022-11-18T17:48:37.397Z,99574.06
2022-11-18T17:51:04.251Z,99578.59
2022-11-18T17:53:30.903Z,99583.09
2022-11-18T17:56:03.709Z,99583.25
2022-11-18T17:58:30.521Z,99578.88
2022-11-18T18:00:56.915Z,99587.94
2022-11-18T18:03:23.292Z,99586.22
2022-11-18T18:05:49.647Z,99585.38
2022-11-18T18:08:16.126Z,99595.28
2022-11-18T18:10:42.482Z,99598.97
2022-11-18T18:13:10.081Z,99601.66
2022-11-18T18:15:37.019Z,99606.16
2022-11-18T18:18:03.470Z,99605.31
2022-11-18T18:20:29.808Z,99603.63
2022-11-18T18:22:56.170Z,99601.94
2022-11-18T18:25:22.829Z,99618.88
2022-11-18T18:27:49.176Z,99605.63
2022-11-18T18:30:17.369Z,99606.78
2022-11-18T18:32:48.123Z,99612.97
2022-11-18T18:35:17.417Z,99614.94
2022-11-18T18:37:43.734Z,99616.97
2022-11-18T18:40:10.409Z,99628.69
2022-11-18T18:42:36.740Z,99627.69
2022-11-18T18:45:03.287Z,99635.88
2022-11-18T18:47:33.460Z,99637.88
2022-11-18T18:49:59.806Z,99632.50
2022-11-18T18:52:26.165Z,99633.50
2022-11-18T18:54:52.495Z,99630.97
2022-11-18T18:57:19.034Z,99640.84
2022-11-18T18:59:45.343Z,99636.31
2022-11-18T19:02:11.943Z,99634.78
2022-11-18T19:04:39.552Z,99637.47
2022-11-18T19:07:05.993Z,99633.94
2022-11-18T19:09:35.211Z,99641.31
2022-11-18T19:12:04.231Z,99649.34
2022-11-18T19:14:32.321Z,99651.19
2022-11-18T19:16:58.617Z,99654.72
2022-11-18T19:19:25.993Z,99646.81
2022-11-18T19:21:53.592Z,99645.84
2022-11-18T19:24:47.756Z,99645.84
2022-11-18T19:27:06.606Z,99637.25
2022-11-18T19:29:33.253Z,99640.75
2022-11-18T19:31:59.553Z,99648.94
2022-11-18T19:34:25.938Z,99661.38
2022-11-18T19:36:53.536Z,99655.31
2022-11-18T19:39:20.171Z,99652.75
2022-11-18T19:41:46.649Z,99658.13
2022-11-18T19:44:13.050Z,99658.97
2022-11-18T19:46:39.379Z,99656.31
2022-11-18T19:49:05.674Z,99649.22
2022-11-18T19:51:31.976Z,99652.91
2022-11-18T19:53:59.885Z,99664.34
2022-11-18T19:56:26.247Z,99669.00
2022-11-18T19:58:52.524Z,99662.81
2022-11-18T20:01:20.277Z,99674.53
2022-11-18T20:03:47.125Z,99674.53
2022-11-18T20:06:14.319Z,99665.59
2022-11-18T20:08:40.634Z,99670.13
2022-11-18T20:11:09.592Z,99682.97
2022-11-18T20:13:36.380Z,99701.88
2022-11-18T20:16:03.818Z,99705.25
2022-11-18T20:18:30.142Z,99704.03
2022-11-18T20:20:56.473Z,99697.94
2022-11-18T20:23:22.798Z,99704.84
2022-11-18T20:25:49.098Z,99702.47
2022-11-18T20:28:16.769Z,99683.84
2022-11-18T20:30:45.156Z,99672.25
2022-11-18T20:33:11.593Z,99685.84
2022-11-18T20:35:37.965Z,99691.19
2022-11-18T20:38:04.254Z,99702.03
2022-11-18T20:40:30.567Z,99699.53
2022-11-18T20:42:57.010Z,99700.38
2022-11-18T20:45:24.616Z,99709.25
2022-11-18T20:47:50.990Z,99704.88
2022-11-18T20:50:17.430Z,99718.28
2022-11-18T20:52:43.764Z,99725.50
2022-11-18T20:55:10.147Z,99730.84
2022-11-18T20:57:36.450Z,99728.31
2022-11-18T21:00:02.905Z,99731.97
2022-11-18T21:02:30.973Z,99735.50
2022-11-18T21:04:57.411Z,99731.16
2022-11-18T21:07:23.845Z,99732.97
2022-11-18T21:09:50.185Z,99733.81
2022-11-18T21:12:16.512Z,99727.72
2022-11-18T21:14:42.980Z,99731.28
2022-11-18T21:17:09.321Z,99736.63
2022-11-18T21:19:36.975Z,99734.81
2022-11-18T21:22:03.307Z,99739.31
2022-11-18T21:24:30.520Z,99728.72
2022-11-18T21:26:57.320Z,99731.56
2022-11-18T21:29:25.410Z,99732.41
2022-11-18T21:31:52.146Z,99733.41
2022-11-18T21:34:18.884Z,99739.72
2022-11-18T21:36:52.972Z,99743.25
2022-11-18T21:39:21.373Z,99741.56
2022-11-18T21:41:53.678Z,99762.16
2022-11-18T21:44:21.846Z,99761.34
2022-11-18T21:46:48.335Z,99763.00
2022-11-18T21:49:14.681Z,99773.91
2022-11-18T21:51:40.994Z,99773.06
2022-11-18T21:54:08.632Z,99775.56
2022-11-18T21:56:34.982Z,99773.19
2022-11-18T21:59:01.936Z,99768.81
2022-11-18T22:01:28.906Z,99779.38
2022-11-18T22:03:56.069Z,99769.66
2022-11-18T22:06:23.014Z,99766.13
2022-11-18T22:08:50.074Z,99776.13
2022-11-18T22:11:17.755Z,99776.13
2022-11-18T22:13:44.102Z,99776.13
2022-11-18T22:16:11.579Z,99770.94
2022-11-18T22:18:38.931Z,99768.38
2022-11-18T22:21:06.324Z,99772.78
2022-11-18T22:23:33.080Z,99773.75
2022-11-18T22:25:59.926Z,99782.63
2022-11-18T22:28:27.539Z,99782.63
2022-11-18T22:30:53.882Z,99778.41
2022-11-18T22:33:20.240Z,99780.09
2022-11-18T22:35:46.591Z,99783.63
2022-11-18T22:38:12.882Z,99779.38
2022-11-18T22:40:39.361Z,99787.44
2022-11-18T22:43:05.768Z,99806.19
2022-11-18T22:45:33.411Z,99802.66
2022-11-18T22:47:59.691Z,99803.66
2022-11-18T22:50:26.211Z,99802.81
2022-11-18T22:52:52.555Z,99803.81
2022-11-18T22:55:19.027Z,99804.78
2022-11-18T22:57:45.364Z,99800.44
2022-11-18T23:00:12.179Z,99817.34
2022-11-18T23:02:39.775Z,99807.63
2022-11-18T23:05:06.321Z,99801.41
2022-11-18T23:07:32.750Z,99809.59
2022-11-18T23:09:59.165Z,99808.75
2022-11-18T23:12:25.642Z,99809.59
2022-11-18T23:14:52.014Z,99813.09
2022-11-18T23:17:18.355Z,99818.63
2022-11-18T23:19:45.910Z,99811.41
2022-11-18T23:22:12.721Z,99824.81
2022-11-18T23:24:39.378Z,99815.22
2022-11-18T23:27:05.827Z,99818.91
2022-11-18T23:29:32.081Z,99824.25
2022-11-18T23:31:58.376Z,99834.97
2022-11-18T23:34:24.702Z,99841.34
2022-11-18T23:36:52.319Z,99845.69
2022-11-18T23:39:19.144Z,99849.38
2022-11-18T23:41:45.778Z,99848.53
2022-11-18T23:44:12.239Z,99853.16
2022-11-18T23:46:38.563Z,99866.56
2022-11-18T23:49:07.561Z,99857.69
2022-11-18T23:51:33.939Z,99858.53
2022-11-18T23:54:01.718Z,99860.38
2022-11-18T23:56:28.017Z,99855.28
2022-11-18T23:58:55.537Z,99862.19
